Latest Weather Observations for Redcliffe

IDQ60801

Issued at 6:42 am EST Friday 21 September 2018 (issued every 10 minutes, with the page automatically refreshed every 10 minutes)

About weather observations | Map of weather stations | Latest weather observations for QLD | Other Formats
Station Details ID: 040958 Name: REDCLIFFE Lat: -27.22 Lon: 153.09 Height: 12.6 m
Data from the previous 72 hours. | See also: Recent months at Redcliffe
Date/Time
EST
Temp
°C
App
Temp
°C
Dew
Point
°C
Rel
Hum
%
Delta-T
°C
Wind Press
QNH
hPa
Press
MSL
hPa
Rain since
9am
mm
Dir  Spd
km/h
Gust
km/h
Spd
kts
Gust
kts
21/06:30am 14.6 11.5 8.8 68 2.9 SSW 15 19 8 10 1023.7 1023.7 0.0
21/06:00am 13.4 10.3 8.7 73 2.3 SSW 15 20 8 11 1023.3 1023.3 0.0
21/05:30am 13.2 9.7 8.7 74 2.3 SSW 17 24 9 13 1022.9 1022.9 0.0
21/05:00am 13.3 10.6 8.8 74 2.3 SSW 13 19 7 10 1022.5 1022.5 0.0
21/04:30am 13.6 10.9 9.1 74 2.3 SW 13 17 7 9 1021.9 1021.9 0.0
21/04:00am 13.7 11.2 9.6 76 2.1 SW 13 19 7 10 1021.6 1021.6 0.0
21/03:30am 14.4 10.2 9.6 73 2.5 SSW 22 32 12 17 1021.3 1021.3 0.0
21/03:00am 15.1 8.5 9.9 71 2.7 S 35 39 19 21 1021.2 1021.2 0.0
21/02:30am 15.5 9.4 10.3 71 2.7 S 33 44 18 24 1021.1 1021.1 0.0
21/02:00am 15.6 11.0 11.0 74 2.4 S 26 33 14 18 1021.2 1021.2 0.0
21/01:30am 15.8 9.9 11.0 73 2.6 S 33 41 18 22 1021.2 1021.2 0.0
21/01:00am 16.4 8.0 11.1 71 2.8 S 46 56 25 30 1021.0 1021.0 0.0
21/12:30am 16.7 9.9 10.8 68 3.2 S 37 43 20 23 1021.0 1021.0 0.0
21/12:00am 17.1 9.2 10.9 67 3.3 SSE 43 50 23 27 1020.7 1020.7 0.0
 
Date/Time
EST
Temp
°C
App
Temp
°C
Dew
Point
°C
Rel
Hum
%
Delta-T
°C
Wind Press
QNH
hPa
Press
MSL
hPa
Rain since
9am
mm
Dir  Spd
km/h
Gust
km/h
Spd
kts
Gust
kts
20/11:30pm 17.7 10.7 12.6 72 2.8 SSE 41 54 22 29 1020.6 1020.6 0.0
20/11:00pm 18.0 12.2 12.7 71 2.9 SSE 35 41 19 22 1020.3 1020.3 0.0
20/10:30pm 18.3 14.4 14.4 78 2.2 S 28 35 15 19 1020.1 1020.1 0.0
20/10:25pm 18.3 14.5 14.6 79 2.1 S 28 35 15 19 1020.0 1019.9 0.0
20/10:00pm 17.7 17.2 13.8 78 2.2 SSW 9 15 5 8 1019.6 1019.5 0.0
20/09:30pm 18.5 17.4 14.2 76 2.5 SW 13 17 7 9 1019.4 1019.3 0.0
20/09:00pm 18.9 17.8 14.4 75 2.6 SSW 13 19 7 10 1019.2 1019.1 0.0
20/08:30pm 18.9 18.2 14.4 75 2.6 SW 11 15 6 8 1018.8 1018.7 0.0
20/08:00pm 19.6 17.5 14.6 73 2.9 S 19 22 10 12 1018.2 1018.1 0.0
20/07:30pm 20.1 17.9 14.9 72 3.0 SSE 20 26 11 14 1017.7 1017.6 0.0
20/07:00pm 20.1 18.2 15.3 74 2.8 SSE 19 24 10 13 1017.0 1016.9 0.0
20/06:30pm 20.5 18.7 15.9 75 2.7 SSE 20 26 11 14 1016.1 1016.0 0.0
20/06:00pm 20.4 18.7 15.8 75 2.7 SSE 19 20 10 11 1015.6 1015.5 0.0
20/05:30pm 20.7 19.1 15.9 74 2.9 SE 19 20 10 11 1014.9 1014.8 0.0
20/05:00pm 21.0 18.7 15.8 72 3.1 SE 22 26 12 14 1014.2 1014.1 0.0
20/04:30pm 21.2 19.4 16.0 72 3.1 SE 20 24 11 13 1013.5 1013.4 0.0
20/04:00pm 21.4 19.2 15.9 71 3.3 SE 22 28 12 15 1013.1 1013.0 0.0
20/03:30pm 21.6 19.4 15.9 70 3.4 ESE 22 28 12 15 1012.7 1012.6 0.0
20/03:00pm 22.0 19.9 16.3 70 3.5 ESE 22 26 12 14 1012.4 1012.3 0.0
20/02:30pm 22.4 20.2 16.0 67 3.9 ESE 22 28 12 15 1012.6 1012.5 0.0
20/02:00pm 22.7 20.1 15.8 65 4.2 ESE 24 28 13 15 1012.5 1012.4 0.0
20/01:30pm 23.4 20.2 16.2 64 4.4 ESE 28 32 15 17 1012.4 1012.3 0.0
20/01:00pm 22.9 19.4 15.5 63 4.4 ESE 28 32 15 17 1012.6 1012.5 0.0
20/12:30pm 22.3 17.7 15.2 64 4.2 ESE 33 37 18 20 1012.7 1012.6 0.0
20/12:00pm 23.3 20.0 15.1 60 4.9 ESE 26 30 14 16 1013.3 1013.2 0.0
20/11:30am 23.1 19.8 12.7 52 6.0 ESE 22 28 12 15 1013.6 1013.5 0.0
20/11:00am 24.0 20.9 11.7 46 6.9 E 19 22 10 12 1013.7 1013.6 0.0
20/10:30am 24.0 21.4 12.0 47 6.8 E 17 19 9 10 1013.7 1013.6 0.0
20/10:00am 26.1 23.9 9.5 35 9.1 E 11 13 6 7 1013.6 1013.5 0.0
20/09:30am 24.2 22.8 12.2 47 6.8 NE 11 13 6 7 1013.6 1013.5 0.0
20/09:00am 22.6 20.5 12.3 52 5.8 NNE 15 19 8 10 1013.5 1013.4 0.0
20/08:30am 21.3 19.8 13.0 59 4.7 NNW 13 22 7 12 1013.6 1013.5 0.0
20/08:00am 20.4 18.1 13.1 63 4.2 N 17 20 9 11 1013.5 1013.4 0.0
20/07:30am 19.2 17.9 13.8 71 3.1 N 13 17 7 9 1013.7 1013.6 0.0
20/07:00am 18.1 17.2 13.6 75 2.6 NNW 11 15 6 8 1013.6 1013.5 0.0
20/06:30am 17.7 16.8 13.8 78 2.2 NNW 11 15 6 8 1013.5 1013.4 0.0
20/06:00am 17.1 16.1 13.4 79 2.1 NW 11 13 6 7 1013.5 1013.4 0.0
20/05:30am 17.0 16.1 13.7 81 1.9 NNW 11 15 6 8 1013.1 1013.0 0.0
20/05:00am 16.1 14.4 12.5 79 2.0 NNW 13 15 7 8 1012.9 1012.8 0.0
20/04:30am 17.2 16.3 13.7 80 2.0 N 11 15 6 8 1012.5 1012.4 0.0
20/04:00am 16.9 16.5 13.0 78 2.2 WSW 7 9 4 5 1012.5 1012.4 0.0
20/03:30am 18.5 18.0 13.8 74 2.7 NNW 9 13 5 7 1012.2 1012.1 0.0
20/03:00am 17.8 14.9 13.9 78 2.2 N 22 30 12 16 1012.2 1012.1 0.0
20/02:30am 17.3 15.3 11.6 69 3.1 WNW 13 15 7 8 1012.7 1012.6 0.0
20/02:00am 17.7 15.4 11.7 68 3.3 N 15 19 8 10 1012.4 1012.3 0.0
20/01:30am 18.9 16.4 12.4 66 3.6 NNW 17 26 9 14 1012.8 1012.7 0.0
20/01:00am 19.1 17.0 12.4 65 3.7 N 15 19 8 10 1012.8 1012.7 0.0
20/12:30am 19.1 16.9 12.1 64 3.9 N 15 19 8 10 1013.1 1013.0 0.0
20/12:00am 19.4 16.5 12.2 63 4.0 N 19 24 10 13 1013.4 1013.3 0.0
 
Date/Time
EST
Temp
°C
App
Temp
°C
Dew
Point
°C
Rel
Hum
%
Delta-T
°C
Wind Press
QNH
hPa
Press
MSL
hPa
Rain since
9am
mm
Dir  Spd
km/h
Gust
km/h
Spd
kts
Gust
kts
19/11:30pm 19.6 17.2 12.6 64 3.9 N 17 22 9 12 1013.6 1013.5 0.0
19/11:00pm 19.7 16.6 13.4 67 3.6 N 22 28 12 15 1013.8 1013.7 0.0
19/10:30pm 19.7 15.9 13.6 68 3.5 N 26 33 14 18 1013.8 1013.7 0.0
19/10:00pm 20.0 16.0 14.1 69 3.4 N 28 35 15 19 1013.8 1013.7 0.0
19/09:30pm 20.2 16.0 14.6 70 3.3 N 30 37 16 20 1014.0 1013.9 0.0
19/09:00pm 20.3 16.3 15.3 73 3.0 N 30 35 16 19 1014.3 1014.2 0.0
19/08:30pm 20.3 17.1 15.3 73 3.0 N 26 33 14 18 1014.5 1014.4 0.0
19/08:00pm 20.5 17.0 15.5 73 3.0 N 28 39 15 21 1014.3 1014.2 0.0
19/07:30pm 20.4 17.2 15.4 73 3.0 N 26 35 14 19 1014.2 1014.1 0.0
19/07:00pm 20.5 17.3 15.3 72 3.1 N 26 33 14 18 1014.0 1013.9 0.0
19/06:30pm 20.7 15.7 15.0 70 3.4 N 35 39 19 21 1013.7 1013.6 0.0
19/06:00pm 20.8 15.7 14.9 69 3.5 N 35 41 19 22 1013.8 1013.7 0.0
19/05:30pm 21.1 16.3 14.5 66 3.9 NNE 33 39 18 21 1013.6 1013.5 0.0
19/05:00pm 21.6 16.8 14.5 64 4.2 NNE 33 39 18 21 1013.4 1013.3 0.0
19/04:30pm 21.9 16.5 13.8 60 4.7 NNE 35 39 19 21 1013.1 1013.0 0.0
19/04:00pm 22.4 17.1 13.2 56 5.3 NNE 33 39 18 21 1013.0 1012.9 0.0
19/03:30pm 22.3 16.7 13.4 57 5.1 NNE 35 41 19 22 1013.1 1013.0 0.0
19/03:00pm 22.7 17.2 13.7 56 5.2 NNE 35 41 19 22 1013.3 1013.2 0.0
19/02:30pm 22.4 16.3 12.9 55 5.4 NNE 37 41 20 22 1013.5 1013.4 0.0
19/02:00pm 22.8 16.6 12.7 53 5.8 NE 37 43 20 23 1014.0 1013.9 0.0
19/01:30pm 23.2 16.5 12.2 50 6.2 NE 39 43 21 23 1014.4 1014.3 0.0
19/01:00pm 23.1 17.2 12.4 51 6.1 NE 35 41 19 22 1015.0 1014.9 0.0
19/12:30pm 23.6 18.1 12.0 48 6.6 NE 32 37 17 20 1015.6 1015.5 0.0
19/12:00pm 23.7 18.5 11.7 47 6.8 NE 30 35 16 19 1016.4 1016.3 0.0
19/11:30am 23.6 18.4 11.6 47 6.8 NE 30 33 16 18 1017.0 1016.9 0.0
19/11:00am 21.6 19.9 13.5 60 4.7 E 15 19 8 10 1017.3 1017.2 0.0
19/10:30am 22.3 20.1 13.4 57 5.1 E 17 19 9 10 1017.9 1017.8 0.0
19/10:00am 22.0 19.8 12.0 53 5.6 NNE 15 19 8 10 1018.3 1018.2 0.0
19/09:30am 21.2 18.8 11.5 54 5.4 NNE 15 19 8 10 1018.7 1018.6 0.0
19/09:00am 20.7 19.4 11.3 55 5.2 E 9 11 5 6 1019.3 1019.2 0.0
19/08:30am 20.7 20.0 11.9 57 4.9 SE 7 9 4 5 1019.5 1019.4 0.0
19/08:00am 19.3 18.2 12.1 63 4.0 SE 9 11 5 6 1019.5 1019.4 0.0
19/07:30am 16.9 16.1 11.6 71 2.9 WSW 7 9 4 5 1019.6 1019.5 0.0
19/07:00am 15.2 14.0 11.6 79 1.9 SW 9 11 5 6 1019.4 1019.3 0.0
19/06:30am 13.5 11.7 10.9 84 1.4 WSW 11 13 6 7 1019.2 1019.1 0.0
19/06:00am 12.9 11.4 10.6 86 1.2 SW 9 11 5 6 1018.7 1018.6 0.0
19/05:30am 12.9 11.9 10.4 85 1.3 SW 6 7 3 4 1018.3 1018.2 0.0
19/05:00am 12.7 11.7 10.2 85 1.3 SW 6 9 3 5 1018.0 1017.9 0.0
19/04:30am 12.4 11.1 10.0 85 1.2 W 7 9 4 5 1018.1 1018.0 0.0
19/04:00am 12.8 10.8 10.0 83 1.4 WNW 11 13 6 7 1018.0 1017.9 0.0
19/03:30am 13.4 12.3 10.6 83 1.5 WNW 7 9 4 5 1017.8 1017.7 0.0
19/03:00am 13.9 13.9 11.2 84 1.4 WNW 2 7 1 4 1017.7 1017.6 0.0
19/02:30am 13.6 12.6 10.4 81 1.7 WSW 6 7 3 4 1018.1 1018.0 0.0
19/02:00am 14.0 12.9 10.6 80 1.8 W 7 9 4 5 1018.5 1018.4 0.0
19/01:30am 14.1 12.5 10.1 77 2.1 W 9 11 5 6 1018.7 1018.6 0.0
19/01:00am 14.3 12.3 10.1 76 2.2 WNW 11 13 6 7 1019.0 1018.9 0.0
19/12:30am 14.9 12.9 10.1 73 2.5 WNW 11 13 6 7 1019.4 1019.3 0.0
19/12:00am 15.1 13.6 10.5 74 2.4 W 9 11 5 6 1019.8 1019.7 0.0
 
Date/Time
EST
Temp
°C
App
Temp
°C
Dew
Point
°C
Rel
Hum
%
Delta-T
°C
Wind Press
QNH
hPa
Press
MSL
hPa
Rain since
9am
mm
Dir  Spd
km/h
Gust
km/h
Spd
kts
Gust
kts
18/11:30pm 15.2 13.7 10.4 73 2.5 WNW 9 13 5 7 1019.8 1019.7 0.0
18/11:00pm 16.1 14.3 10.8 71 2.8 WNW 11 13 6 7 1019.9 1019.8 0.0
18/10:30pm 16.4 13.0 11.3 72 2.7 N 20 26 11 14 1019.9 1019.8 0.0
18/10:00pm 17.6 13.3 12.1 70 3.0 NE 26 30 14 16 1019.9 1019.8 0.0
18/09:30pm 19.0 15.2 12.5 66 3.6 NNE 24 26 13 14 1019.9 1019.8 0.0
18/09:00pm 19.0 15.4 11.8 63 4.0 NNE 22 26 12 14 1020.0 1019.9 0.0
18/08:30pm 19.1 15.9 11.9 63 4.0 NE 20 24 11 13 1020.0 1019.9 0.0
18/08:00pm 19.2 15.8 11.3 60 4.3 NE 20 24 11 13 1020.2 1020.2 0.0
18/07:30pm 19.3 15.9 11.1 59 4.5 NE 20 26 11 14 1020.0 1019.9 0.0
18/07:00pm 19.4 15.0 10.4 56 4.8 NE 24 28 13 15 1019.6 1019.5 0.0
18/06:30pm 19.4 14.7 9.3 52 5.3 NE 24 28 13 15 1019.4 1019.3 0.0
18/06:00pm 19.6 16.0 9.8 53 5.2 NE 19 24 10 13 1019.2 1019.1 0.0
18/05:30pm 19.7 15.8 9.6 52 5.4 ENE 20 24 11 13 1019.1 1019.0 0.0
18/05:00pm 20.1 16.5 9.9 52 5.5 NE 19 24 10 13 1019.0 1018.9 0.0
18/04:30pm 20.3 16.0 9.5 50 5.8 NE 22 26 12 14 1018.8 1018.7 0.0
18/04:00pm 20.7 16.9 9.9 50 5.8 NE 20 26 11 14 1018.7 1018.6 0.0
18/03:30pm 20.8 16.9 9.4 48 6.1 NE 20 26 11 14 1018.8 1018.7 0.0
18/03:00pm 21.1 17.5 10.0 49 6.0 ENE 19 24 10 13 1019.0 1018.9 0.0
18/02:30pm 21.2 17.8 10.7 51 5.7 NE 19 22 10 12 1019.3 1019.2 0.0
18/02:00pm 21.4 18.5 11.1 52 5.7 ENE 17 19 9 10 1019.7 1019.6 0.0
18/01:30pm 21.4 18.8 10.6 50 5.9 ENE 15 19 8 10 1020.2 1020.2 0.0
18/01:00pm 22.2 20.1 11.3 50 6.0 E 13 17 7 9 1020.5 1020.5 0.0
18/12:30pm 22.7 20.4 10.5 46 6.7 ENE 13 15 7 8 1021.0 1021.0 0.0
18/12:00pm 21.7 20.0 9.9 47 6.4 ENE 9 13 5 7 1021.7 1021.7 0.0
18/11:30am 22.0 20.7 11.1 50 6.0 E 9 11 5 6 1022.3 1022.3 0.0
18/11:00am 21.0 19.6 9.6 48 6.1 ESE 7 9 4 5 1022.9 1022.9 0.0
18/10:30am 21.9 20.4 10.7 49 6.2 SSE 9 11 5 6 1023.2 1023.2 0.0
18/10:00am 20.9 19.0 10.4 51 5.7 SSE 11 11 6 6 1023.5 1023.5 0.0
18/09:30am 21.8 19.9 11.8 53 5.6 S 13 15 7 8 1023.6 1023.6 0.0
18/09:00am 20.0 18.0 11.5 58 4.7 S 13 15 7 8 1023.8 1023.8 0.0
18/08:30am 18.6 15.9 10.4 59 4.4 S 15 17 8 9 1023.8 1023.8 0.0
18/08:00am 18.3 15.6 10.2 59 4.3 S 15 19 8 10 1023.6 1023.6 0.0
18/07:30am 16.7 14.7 10.3 66 3.4 SW 11 15 6 8 1023.4 1023.4 0.0
18/07:00am 15.0 12.9 9.6 70 2.8 SW 11 13 6 7 1023.3 1023.3 0.0

Other Formats:

Comma delimited format used in spreadsheet applications
http://www.bom.gov.au/fwo/IDQ60801/IDQ60801.95591.axf

JavaScript Object Notation format (JSON) in row-major order
http://www.bom.gov.au/fwo/IDQ60801/IDQ60801.95591.json